Time;durP1;ratioP1;P1;durP2;ratioP2;P2;SDS_P1;SDS_P2;PMS_P1;PMS_P2;Temp;Humidity;BMP_temperature;BMP_pressure;BME280_temperature;BME280_humidity;BME280_pressure;Samples;Min_cycle;Max_cycle;Signal;HPM_P1;HPM_P2
2021/04/15 00:01:15;;;;;;;5.03;2.80;;;;;;;4.17;64.80;101046.34;2266477;78;27615;-60
2021/04/15 00:04:17;;;;;;;3.52;2.05;;;;;;;4.16;64.93;101046.81;2234743;79;32536;-60
2021/04/15 00:07:19;;;;;;;4.40;2.77;;;;;;;4.16;65.01;101041.51;2244610;78;33500;-60
2021/04/15 00:10:32;;;;;;;4.97;3.00;;;;;;;4.15;65.04;101037.09;2222160;78;33122;-60
2021/04/15 00:13:41;;;;;;;4.90;2.77;;;;;;;4.11;65.14;101030.06;2228796;79;28992;-60
2021/04/15 00:16:43;;;;;;;6.15;3.47;;;;;;;4.08;65.06;101026.11;2189223;81;27613;-60
2021/04/15 00:19:45;;;;;;;5.17;2.80;;;;;;;4.08;65.03;101028.34;2234504;79;28830;-60
2021/04/15 00:22:48;;;;;;;6.20;2.85;;;;;;;4.09;65.17;101023.90;2236884;79;31237;-59
2021/04/15 00:25:50;;;;;;;5.35;2.75;;;;;;;4.06;65.13;101022.17;2236772;79;33959;-59
2021/04/15 00:28:54;;;;;;;6.90;3.27;;;;;;;4.06;65.16;101016.87;2190158;79;31543;-60
2021/04/15 00:31:56;;;;;;;8.53;3.30;;;;;;;4.04;65.19;101018.66;2277864;78;27718;-60
2021/04/15 00:34:58;;;;;;;5.42;3.17;;;;;;;4.03;65.32;101020.01;2277768;78;28825;-60
2021/04/15 00:38:01;;;;;;;5.25;3.45;;;;;;;3.98;65.45;101016.52;2277679;78;32211;-60
2021/04/15 00:41:09;;;;;;;5.45;2.92;;;;;;;3.94;65.55;101018.33;2196752;79;33139;-60
2021/04/15 00:44:12;;;;;;;4.17;3.22;;;;;;;3.92;65.55;101017.47;2227537;79;30035;-61
2021/04/15 00:47:19;;;;;;;8.63;3.83;;;;;;;3.89;65.51;101013.52;2221441;78;27655;-60
2021/04/15 00:50:30;;;;;;;7.50;3.37;;;;;;;3.87;65.66;101017.95;2170815;81;29038;-61
2021/04/15 00:53:39;;;;;;;5.33;3.67;;;;;;;3.88;65.87;101016.63;2234431;78;31139;-61
2021/04/15 00:56:42;;;;;;;5.72;3.75;;;;;;;3.88;65.90;101007.78;2185705;81;33965;-61
2021/04/15 00:59:44;;;;;;;9.45;4.67;;;;;;;3.90;65.92;101012.63;2236328;79;29170;-61
2021/04/15 01:02:46;;;;;;;7.25;4.20;;;;;;;3.92;65.98;101006.40;2188358;81;27781;-60
2021/04/15 01:05:49;;;;;;;10.80;4.90;;;;;;;3.95;65.97;101010.35;2236760;79;29016;-60
2021/04/15 01:08:53;;;;;;;9.55;5.30;;;;;;;3.97;66.12;101007.70;2175731;81;32108;-60
2021/04/15 01:12:27;;;;;;;11.03;5.72;;;;;;;4.00;66.15;101008.11;2233527;79;33102;-60
2021/04/15 01:15:46;;;;;;;9.60;5.25;;;;;;;4.02;66.08;101011.16;2187945;81;29230;-60
2021/04/15 01:19:03;;;;;;;8.83;3.72;;;;;;;4.06;66.14;101007.59;2236603;79;27840;-60
2021/04/15 01:22:42;;;;;;;7.08;4.53;;;;;;;4.09;66.10;101002.25;2188091;81;30289;-60
2021/04/15 01:26:25;;;;;;;8.85;4.70;;;;;;;4.13;66.16;100999.11;2255501;77;31193;-60
2021/04/15 01:30:06;;;;;;;9.60;4.92;;;;;;;4.16;66.14;100996.86;2257292;78;33176;-60
2021/04/15 01:33:34;;;;;;;8.55;4.62;;;;;;;4.18;66.09;100991.98;2258306;78;29168;-60
2021/04/15 01:36:41;;;;;;;7.55;4.75;;;;;;;4.21;66.11;100992.39;2259142;78;27666;-61
2021/04/15 01:39:51;;;;;;;5.97;4.12;;;;;;;4.21;66.10;100985.33;2257496;78;28827;-61
2021/04/15 01:43:12;;;;;;;7.33;4.47;;;;;;;4.21;66.08;100980.45;2259112;78;31140;-60
2021/04/15 01:46:18;;;;;;;9.88;4.85;;;;;;;4.21;66.12;100984.44;2258779;78;32952;-61
2021/04/15 01:49:21;;;;;;;7.08;4.65;;;;;;;4.20;66.14;100979.59;2258964;78;29120;-60
2021/04/15 01:52:25;;;;;;;8.93;5.37;;;;;;;4.19;66.03;100981.81;2256673;78;27614;-61
2021/04/15 01:55:32;;;;;;;7.12;5.17;;;;;;;4.16;66.17;100977.86;2256615;78;29770;-60
2021/04/15 01:58:42;;;;;;;9.00;4.33;;;;;;;4.14;66.17;100978.80;2258593;78;31136;-61
2021/04/15 02:01:49;;;;;;;9.55;5.55;;;;;;;4.12;66.29;100977.93;2257855;78;33174;-61
2021/04/15 02:05:19;;;;;;;9.50;5.28;;;;;;;4.07;66.25;100978.85;2257533;78;28955;-61
2021/04/15 02:08:28;;;;;;;10.50;5.65;;;;;;;4.06;66.38;100975.77;2258789;78;27681;-60
2021/04/15 02:11:42;;;;;;;11.75;5.35;;;;;;;4.03;66.37;100972.28;2258283;78;29362;-60
2021/04/15 02:14:48;;;;;;;8.23;4.50;;;;;;;4.03;66.47;100980.23;2257420;78;33459;-61
2021/04/15 02:17:52;;;;;;;6.05;4.37;;;;;;;3.99;66.65;100974.07;2259047;78;33105;-60
2021/04/15 02:20:58;;;;;;;10.95;4.92;;;;;;;3.97;66.79;100969.69;2221521;78;29150;-61
2021/04/15 02:24:10;;;;;;;6.53;3.60;;;;;;;3.94;66.84;100974.12;2215991;79;27760;-61
2021/04/15 02:27:17;;;;;;;6.05;3.92;;;;;;;3.93;66.93;100972.37;2078227;85;29803;-60
2021/04/15 02:30:30;;;;;;;5.22;3.87;;;;;;;3.95;67.03;100982.52;2150067;81;32052;-61
2021/04/15 02:33:41;;;;;;;5.78;3.67;;;;;;;3.96;67.11;100978.11;2187852;81;33956;-61
2021/04/15 02:37:03;;;;;;;7.15;3.92;;;;;;;3.95;67.14;100980.33;2185607;80;29509;-60
2021/04/15 02:40:21;;;;;;;7.60;4.13;;;;;;;4.01;67.33;100971.42;2294815;77;28221;-61
2021/04/15 02:43:41;;;;;;;8.20;4.62;;;;;;;3.97;67.38;100973.23;2260179;78;28091;-61
2021/04/15 02:46:54;;;;;;;9.65;5.37;;;;;;;3.97;67.38;100973.67;2207397;80;31155;-61
2021/04/15 02:49:57;;;;;;;8.28;5.17;;;;;;;3.98;67.56;100973.64;2257632;78;31563;-61
2021/04/15 02:53:07;;;;;;;9.60;5.58;;;;;;;3.97;67.55;100966.61;2181117;80;33957;-61
2021/04/15 02:56:35;;;;;;;10.63;6.00;;;;;;;3.97;67.89;100963.06;2178911;80;28555;-62
2021/04/15 03:00:12;;;;;;;9.80;5.55;;;;;;;3.93;67.81;100968.39;2178210;81;27588;-60
2021/04/15 03:03:20;;;;;;;9.83;6.28;;;;;;;3.89;67.78;100966.66;2179083;81;28827;-60
2021/04/15 03:06:27;;;;;;;9.83;6.47;;;;;;;3.87;67.91;100967.59;2211865;80;31195;-61
2021/04/15 03:09:34;;;;;;;11.65;6.15;;;;;;;3.85;67.89;100964.08;2177064;81;33131;-60
2021/04/15 03:12:43;;;;;;;13.98;7.03;;;;;;;3.82;67.92;100966.75;2217717;80;28869;-60
2021/04/15 03:15:50;;;;;;;13.93;9.03;;;;;;;3.83;67.85;100965.43;2171872;81;27688;-61
2021/04/15 03:19:02;;;;;;;15.58;7.83;;;;;;;3.85;67.96;100961.42;2217124;80;28812;-60
2021/04/15 03:22:21;;;;;;;12.35;7.20;;;;;;;3.86;68.00;100961.42;2176994;81;32119;-60
2021/04/15 03:25:24;;;;;;;13.13;7.28;;;;;;;3.85;67.95;100962.32;2216191;80;33124;-61
2021/04/15 03:28:34;;;;;;;12.30;6.58;;;;;;;3.88;67.94;100966.70;2156691;81;28932;-61
2021/04/15 03:31:42;;;;;;;14.18;7.15;;;;;;;3.88;67.91;100964.94;2154133;81;27692;-60
2021/04/15 03:35:03;;;;;;;22.32;9.68;;;;;;;3.89;67.92;100964.02;2176110;81;28823;-61
2021/04/15 03:38:20;;;;;;;28.85;11.73;;;;;;;3.89;67.93;100967.12;2172850;81;32180;-60
2021/04/15 03:41:28;;;;;;;38.53;15.15;;;;;;;3.90;67.85;100964.45;2157614;81;33076;-61
2021/04/15 03:44:42;;;;;;;38.30;15.38;;;;;;;3.90;67.90;100964.45;2158547;79;28907;-61
2021/04/15 03:47:53;;;;;;;43.02;17.20;;;;;;;3.91;67.84;100965.34;2202914;80;27664;-61
2021/04/15 03:51:08;;;;;;;49.95;20.35;;;;;;;3.91;67.76;100964.88;2161756;81;28988;-61
2021/04/15 03:54:14;;;;;;;37.13;16.25;;;;;;;3.91;67.80;100970.64;2156585;81;32190;-60
2021/04/15 03:57:22;;;;;;;23.90;10.78;;;;;;;3.89;67.78;100967.99;2207029;80;34060;-62
2021/04/15 04:00:32;;;;;;;20.75;9.68;;;;;;;3.88;67.73;100972.89;2211288;80;28862;-61
2021/04/15 04:03:38;;;;;;;14.45;7.78;;;;;;;3.88;67.70;100969.34;2213347;80;27926;-62
2021/04/15 04:06:42;;;;;;;13.38;6.70;;;;;;;3.84;67.56;100969.84;2180648;80;28833;-61
2021/04/15 04:09:52;;;;;;;11.90;6.55;;;;;;;3.79;67.40;100972.55;2161578;80;32055;-60
2021/04/15 04:13:34;;;;;;;11.95;6.25;;;;;;;3.76;67.40;100972.57;2173470;80;33131;-61
2021/04/15 04:16:44;;;;;;;16.85;5.80;;;;;;;3.73;67.34;100972.59;2148245;81;28870;-60
2021/04/15 04:19:56;;;;;;;14.20;6.47;;;;;;;3.77;67.24;100970.78;2341351;76;27728;-61
2021/04/15 04:23:37;;;;;;;8.65;4.60;;;;;;;3.73;67.21;100971.27;2291989;77;27631;-60
2021/04/15 04:27:00;;;;;;;9.48;5.37;;;;;;;3.72;67.32;100968.66;2261703;78;28790;-60
2021/04/15 04:30:16;;;;;;;15.93;9.60;;;;;;;3.69;67.00;100968.67;2233034;78;32109;-60
2021/04/15 04:33:37;;;;;;;9.53;4.97;;;;;;;3.69;67.04;100969.54;2342667;76;27679;-60
2021/04/15 04:36:39;;;;;;;12.05;5.00;;;;;;;3.59;66.83;100976.70;2306100;77;27653;-59
2021/04/15 04:39:42;;;;;;;10.82;5.42;;;;;;;3.54;66.83;100979.86;2304248;77;28889;-60
2021/04/15 04:42:48;;;;;;;10.32;5.22;;;;;;;3.51;67.10;100983.86;2304297;77;32537;-60
2021/04/15 04:45:58;;;;;;;9.78;4.33;;;;;;;3.51;67.07;100979.89;2217738;80;33181;-60
2021/04/15 04:49:07;;;;;;;9.60;4.10;;;;;;;3.51;67.04;100982.54;2259581;78;28539;-60
2021/04/15 04:52:18;;;;;;;9.68;4.92;;;;;;;3.48;66.82;100983.88;2219091;80;27723;-61
2021/04/15 04:55:28;;;;;;;11.22;4.80;;;;;;;3.46;66.94;100983.02;2250298;78;29714;-60
2021/04/15 04:58:30;;;;;;;8.35;4.92;;;;;;;3.46;67.05;100982.59;2182023;80;30993;-60
2021/04/15 05:01:32;;;;;;;8.48;4.72;;;;;;;3.46;67.05;100983.91;2259444;78;33110;-60
2021/04/15 05:04:36;;;;;;;9.05;5.58;;;;;;;3.48;67.16;100982.56;2217166;80;28854;-60
2021/04/15 05:07:38;;;;;;;8.53;4.58;;;;;;;3.47;67.07;100983.02;2258885;78;27818;-60
2021/04/15 05:10:41;;;;;;;9.28;4.37;;;;;;;3.49;67.09;100981.20;2219025;80;28794;-60
2021/04/15 05:13:43;;;;;;;11.33;4.08;;;;;;;3.51;67.16;100978.56;2259047;78;31140;-61
2021/04/15 05:16:56;;;;;;;7.55;3.67;;;;;;;3.56;67.27;100981.16;2190804;80;33185;-61
2021/04/15 05:20:14;;;;;;;6.03;3.98;;;;;;;3.60;67.35;100977.59;2219385;80;28932;-60
2021/04/15 05:23:37;;;;;;;10.40;6.15;;;;;;;3.64;67.36;100974.89;2218815;80;28125;-61
2021/04/15 05:26:50;;;;;;;10.83;7.27;;;;;;;3.75;67.43;100971.24;2296641;77;27504;-60
2021/04/15 05:30:07;;;;;;;9.78;5.58;;;;;;;3.72;67.55;100968.19;2262791;78;27699;-62
2021/04/15 05:33:15;;;;;;;14.35;8.58;;;;;;;3.74;67.47;100968.16;2261450;78;28816;-60
2021/04/15 05:36:37;;;;;;;9.15;5.10;;;;;;;3.78;67.57;100968.56;2241514;78;31122;-61
2021/04/15 05:39:40;;;;;;;6.60;3.80;;;;;;;3.85;67.74;100968.05;2222032;80;33088;-61
2021/04/15 05:42:50;;;;;;;5.53;3.62;;;;;;;3.91;67.71;100962.70;2178505;81;29532;-61
2021/04/15 05:46:06;;;;;;;6.00;3.40;;;;;;;3.94;67.56;100955.58;2216606;80;27556;-59
2021/04/15 05:49:16;;;;;;;4.70;3.40;;;;;;;4.00;67.70;100969.20;2138091;83;29034;-60
2021/04/15 05:52:41;;;;;;;8.40;3.67;;;;;;;4.02;67.65;100966.09;2178779;81;31218;-60
2021/04/15 05:55:53;;;;;;;6.40;3.33;;;;;;;4.04;67.83;100967.41;2189795;80;33103;-60
2021/04/15 05:59:13;;;;;;;10.88;5.78;;;;;;;4.04;67.73;100965.63;2195527;80;29676;-59
2021/04/15 06:02:43;;;;;;;13.95;8.13;;;;;;;4.10;67.95;100960.26;2178861;81;27688;-60
2021/04/15 06:05:59;;;;;;;8.28;4.87;;;;;;;4.15;67.85;100960.62;2200485;80;29235;-61
2021/04/15 06:09:03;;;;;;;9.60;5.10;;;;;;;4.14;67.82;100964.20;2139584;83;32206;-60
2021/04/15 06:12:20;;;;;;;9.65;5.10;;;;;;;4.18;67.94;100957.95;2139450;83;33105;-60
2021/04/15 06:15:30;;;;;;;7.95;5.87;;;;;;;4.18;68.04;100956.62;2139976;81;28860;-61
2021/04/15 06:18:53;;;;;;;12.05;5.92;;;;;;;4.23;68.12;100954.80;2178903;81;28046;-60
2021/04/15 06:22:18;;;;;;;12.82;7.15;;;;;;;4.27;68.15;100953.87;2178768;81;29770;-60
2021/04/15 06:25:31;;;;;;;10.10;6.07;;;;;;;4.31;68.12;100947.60;2184899;80;31152;-60
2021/04/15 06:28:40;;;;;;;12.50;7.92;;;;;;;4.31;68.03;100951.58;2222975;80;33154;-60
2021/04/15 06:31:46;;;;;;;14.23;8.68;;;;;;;4.30;68.04;100950.28;2224804;80;28851;-60
2021/04/15 06:34:48;;;;;;;13.65;9.08;;;;;;;4.33;68.28;100936.98;2224787;80;27610;-60
2021/04/15 06:38:08;;;;;;;18.27;12.23;;;;;;;4.38;68.23;100939.14;2186846;80;28810;-60
2021/04/15 06:41:51;;;;;;;11.65;9.23;;;;;;;4.40;68.40;100937.31;2209327;80;32171;-61
2021/04/15 06:45:15;;;;;;;10.20;6.40;;;;;;;4.42;68.33;100935.52;2125310;83;33227;-61
2021/04/15 06:49:08;;;;;;;8.98;6.20;;;;;;;4.46;68.38;100933.27;2130760;82;29065;-61
2021/04/15 06:52:36;;;;;;;9.38;5.70;;;;;;;4.47;68.29;100931.04;2146874;82;28132;-60
2021/04/15 06:56:12;;;;;;;7.67;5.12;;;;;;;4.53;68.53;100929.64;2156466;81;29358;-60
2021/04/15 06:59:47;;;;;;;8.45;5.72;;;;;;;4.61;68.54;100924.22;2145774;82;32131;-61
2021/04/15 07:03:13;;;;;;;13.28;8.50;;;;;;;4.66;68.31;100925.47;2138780;82;33860;-61
2021/04/15 07:06:49;;;;;;;13.50;9.20;;;;;;;4.68;68.20;100925.86;2143678;82;29396;-61
2021/04/15 07:10:29;;;;;;;8.48;5.62;;;;;;;4.71;68.26;100917.00;2146576;82;27685;-61
2021/04/15 07:13:50;;;;;;;7.30;5.58;;;;;;;4.71;68.15;100921.84;2146641;82;28815;-60
2021/04/15 07:17:36;;;;;;;8.18;6.25;;;;;;;4.76;68.26;100917.78;2142311;82;30842;-61
2021/04/15 07:20:55;;;;;;;11.07;6.77;;;;;;;4.72;68.13;100916.06;2158017;81;33552;-61
2021/04/15 07:24:56;;;;;;;6.10;4.28;;;;;;;4.72;68.13;100916.06;2214876;80;28856;-60
2021/04/15 07:28:50;;;;;;;7.33;4.72;;;;;;;4.71;67.97;100921.84;2223560;80;28156;-60
2021/04/15 07:32:46;;;;;;;8.17;5.90;;;;;;;4.79;67.88;100912.89;2259450;75;32395;-60
2021/04/15 07:36:05;;;;;;;6.28;3.87;;;;;;;4.86;67.85;100914.09;2225581;78;27752;-61
2021/04/15 07:39:36;;;;;;;10.78;5.92;;;;;;;4.92;67.81;100915.77;2245473;78;28837;-61
2021/04/15 07:43:04;;;;;;;11.85;7.17;;;;;;;4.95;68.01;100915.73;2215227;78;31212;-61
2021/04/15 07:46:35;;;;;;;13.03;8.20;;;;;;;4.91;67.79;100912.69;2216678;77;32389;-61
2021/04/15 07:50:17;;;;;;;10.90;7.12;;;;;;;4.95;67.78;100917.48;2198336;80;27727;-62
2021/04/15 07:53:56;;;;;;;14.85;8.45;;;;;;;4.95;67.76;100917.06;2189323;80;28824;-65
2021/04/15 07:57:19;;;;;;;9.15;5.03;;;;;;;4.89;67.89;100918.91;2198542;80;31149;-61
2021/04/15 08:00:52;;;;;;;7.85;6.22;;;;;;;4.81;67.78;100915.94;2191469;80;33115;-63
2021/04/15 08:04:22;;;;;;;9.70;6.05;;;;;;;4.77;68.01;100912.90;2192469;80;28540;-62
2021/04/15 08:07:48;;;;;;;11.18;7.37;;;;;;;4.76;68.08;100915.13;2196995;80;27858;-61
2021/04/15 08:11:04;;;;;;;9.28;5.37;;;;;;;4.73;67.91;100919.61;2198411;80;29256;-65
2021/04/15 08:14:30;;;;;;;8.80;5.90;;;;;;;4.71;68.11;100914.34;2181555;80;31875;-62
2021/04/15 08:17:50;;;;;;;15.80;9.85;;;;;;;4.74;68.10;100920.04;2193473;80;35446;-60
2021/04/15 08:21:16;;;;;;;6.90;5.28;;;;;;;4.80;68.41;100917.30;2185329;80;28759;-61
2021/04/15 08:24:39;;;;;;;7.47;5.10;;;;;;;4.81;68.23;100917.70;2198876;80;27624;-63
2021/04/15 08:28:22;;;;;;;4.83;4.10;;;;;;;4.91;68.39;100918.44;2206845;80;28816;-62
2021/04/15 08:32:02;;;;;;;5.80;3.98;;;;;;;4.94;68.20;100915.30;2196473;80;32216;-61
2021/04/15 08:35:22;;;;;;;9.28;6.25;;;;;;;4.95;68.08;100911.75;2195039;80;33215;-59
2021/04/15 08:38:47;;;;;;;8.95;6.00;;;;;;;4.98;68.11;100902.84;2199039;80;28902;-60
2021/04/15 08:42:21;;;;;;;;;;;;;;;4.99;68.25;100898.82;2185332;80;27732;-61
2021/04/15 08:45:35;;;;;;;5.00;3.65;;;;;;;5.08;68.26;100901.77;2181874;80;30890;-61
2021/04/15 08:49:14;;;;;;;6.43;4.33;;;;;;;5.16;68.27;100900.31;2306022;76;27789;-62
2021/04/15 08:52:33;;;;;;;5.33;3.80;;;;;;;5.12;68.13;100898.63;2284743;77;36919;-62
2021/04/15 08:55:55;;;;;;;4.10;3.00;;;;;;;5.15;68.08;100893.24;2285942;75;31146;-61
2021/04/15 08:59:32;;;;;;;4.20;3.77;;;;;;;5.18;67.77;100887.88;2240673;78;33598;-61
2021/04/15 09:02:56;;;;;;;4.53;3.22;;;;;;;5.12;67.90;100893.33;2146056;81;33195;-61
2021/04/15 09:06:33;;;;;;;4.83;3.33;;;;;;;5.08;67.83;100887.16;2183987;80;29478;-61
2021/04/15 09:10:10;;;;;;;4.42;3.27;;;;;;;5.10;67.92;100883.17;2178725;80;27788;-62
2021/04/15 09:13:45;;;;;;;6.08;4.45;;;;;;;5.12;67.84;100886.69;2180134;80;28895;-61
2021/04/15 09:17:06;;;;;;;6.75;4.58;;;;;;;5.20;68.29;100888.73;2215005;79;31221;-61
2021/04/15 09:20:35;;;;;;;7.03;4.80;;;;;;;5.30;68.32;100882.80;2269010;77;27979;-61
2021/04/15 09:24:11;;;;;;;6.30;3.70;;;;;;;5.30;68.00;100882.34;2248570;78;28170;-62
2021/04/15 09:27:33;;;;;;;4.90;3.52;;;;;;;5.30;67.82;100889.45;2233110;78;28825;-62
2021/04/15 09:30:58;;;;;;;4.75;3.10;;;;;;;5.31;67.93;100883.23;2249240;77;33347;-62
2021/04/15 09:34:28;;;;;;;4.42;3.30;;;;;;;5.35;68.00;100877.40;2228699;78;34566;-61
2021/04/15 09:38:03;;;;;;;4.37;3.15;;;;;;;5.28;67.92;100877.53;2223751;78;28402;-62
2021/04/15 09:41:30;;;;;;;7.40;3.85;;;;;;;5.27;68.08;100875.78;2232431;78;27719;-61
2021/04/15 09:45:00;;;;;;;4.80;3.77;;;;;;;5.27;68.05;100878.88;2246253;77;28851;-62
2021/04/15 09:48:49;;;;;;;5.17;3.90;;;;;;;5.23;68.13;100879.39;2234352;78;31117;-61
2021/04/15 09:52:32;;;;;;;5.35;3.75;;;;;;;5.22;68.19;100883.38;2229433;78;34479;-60
2021/04/15 09:56:08;;;;;;;5.70;3.58;;;;;;;5.17;68.08;100872.41;2248157;77;29992;-64
2021/04/15 09:59:24;;;;;;;9.18;5.03;;;;;;;5.20;68.28;100873.27;2240524;78;27659;-61
2021/04/15 10:02:49;;;;;;;7.87;4.92;;;;;;;5.20;68.27;100870.61;2231358;78;29761;-62
2021/04/15 10:06:05;;;;;;;12.10;5.90;;;;;;;5.24;68.38;100867.86;2232260;77;31844;-62
2021/04/15 10:09:31;;;;;;;7.00;4.60;;;;;;;5.28;68.42;100865.58;2242827;78;33630;-62
2021/04/15 10:13:28;;;;;;;8.40;3.67;;;;;;;5.37;68.29;100860.55;2264424;77;29477;-62
2021/04/15 10:17:02;;;;;;;10.93;6.47;;;;;;;5.29;68.11;100859.80;2208915;80;28199;-61
2021/04/15 10:20:29;;;;;;;10.82;5.80;;;;;;;5.31;68.43;100856.66;2186376;80;28911;-62
2021/04/15 10:23:37;;;;;;;8.58;5.03;;;;;;;5.33;68.44;100858.84;2186527;80;29888;-61
2021/04/15 10:27:24;;;;;;;6.53;4.25;;;;;;;5.36;68.47;100857.90;2146842;80;35352;-61
2021/04/15 10:31:06;;;;;;;9.98;5.10;;;;;;;5.40;68.38;100859.13;2022138;87;28549;-62
2021/04/15 10:34:52;;;;;;;5.53;3.83;;;;;;;5.45;68.31;100863.05;2105953;84;27825;-62
2021/04/15 10:38:33;;;;;;;7.15;3.75;;;;;;;5.44;68.22;100858.17;2095852;84;28460;-63
2021/04/15 10:42:16;;;;;;;9.18;5.85;;;;;;;5.47;68.03;100854.58;2108084;83;31176;-63
2021/04/15 10:45:50;;;;;;;27.25;13.13;;;;;;;5.50;68.37;100853.19;2099033;84;33623;-63
2021/04/15 10:49:17;;;;;;;3.65;3.15;;;;;;;5.62;68.66;100850.75;2109080;84;28870;-63
2021/04/15 10:52:52;;;;;;;7.97;6.00;;;;;;;5.62;68.11;100852.97;2103347;84;27704;-65
2021/04/15 10:56:11;;;;;;;7.62;5.03;;;;;;;5.65;68.31;100848.03;2107329;84;28846;-62
2021/04/15 10:59:37;;;;;;;15.73;7.40;;;;;;;5.67;68.07;100835.59;2210433;77;27905;-65
2021/04/15 11:03:01;;;;;;;13.98;7.15;;;;;;;5.63;68.13;100840.07;2190481;80;27995;-65
2021/04/15 11:06:06;;;;;;;37.35;13.62;;;;;;;5.62;68.17;100835.69;2203918;80;29027;-64
2021/04/15 11:09:37;;;;;;;10.45;6.05;;;;;;;5.66;68.18;100836.50;2215321;80;31205;-64
2021/04/15 11:12:39;;;;;;;5.45;3.58;;;;;;;5.77;68.53;100839.80;2216242;80;33965;-65
2021/04/15 11:15:48;;;;;;;33.78;17.23;;;;;;;5.85;68.31;100838.30;2198311;80;28471;-64
2021/04/15 11:18:51;;;;;;;14.05;9.73;;;;;;;5.90;68.20;100825.80;2147853;81;27750;-64
2021/04/15 11:21:57;;;;;;;15.48;9.53;;;;;;;5.94;68.17;100827.92;2178628;81;28891;-65
2021/04/15 11:25:31;;;;;;;16.75;9.75;;;;;;;6.01;68.24;100837.56;2178139;81;31173;-65
2021/04/15 11:28:34;;;;;;;8.63;5.90;;;;;;;6.05;67.94;100830.38;2178494;81;34267;-65
2021/04/15 11:31:41;;;;;;;7.35;4.58;;;;;;;6.06;67.81;100834.33;2178863;81;29307;-64
2021/04/15 11:34:44;;;;;;;6.92;4.28;;;;;;;6.06;68.01;100833.00;2178849;81;27870;-65
2021/04/15 11:37:51;;;;;;;6.62;4.67;;;;;;;6.14;68.18;100831.49;2125638;81;28859;-64
2021/04/15 11:40:54;;;;;;;8.53;5.97;;;;;;;6.14;67.74;100829.30;2178822;81;31141;-64
2021/04/15 11:44:06;;;;;;;14.30;9.40;;;;;;;6.15;68.06;100827.92;2178111;81;33641;-64
2021/04/15 11:47:29;;;;;;;10.98;6.92;;;;;;;6.22;68.09;100829.55;2178819;81;28860;-64
2021/04/15 11:50:31;;;;;;;6.60;4.80;;;;;;;6.30;68.03;100823.16;2181545;80;28284;-64
2021/04/15 11:53:50;;;;;;;6.75;4.83;;;;;;;6.34;68.16;100824.41;2217439;80;28822;-65
2021/04/15 11:56:54;;;;;;;7.12;5.15;;;;;;;6.36;67.78;100817.70;2187229;80;31136;-65
2021/04/15 12:00:02;;;;;;;9.85;6.00;;;;;;;6.33;67.57;100819.98;2196374;80;33117;-65
2021/04/15 12:03:15;;;;;;;11.65;7.90;;;;;;;6.34;67.64;100816.86;2224244;80;29048;-66
2021/04/15 12:06:17;;;;;;;8.63;5.87;;;;;;;6.37;68.00;100822.11;2224840;80;27716;-65
2021/04/15 12:09:24;;;;;;;8.90;6.12;;;;;;;6.38;67.81;100817.21;2224352;80;31131;-66
2021/04/15 12:12:41;;;;;;;13.60;7.17;;;;;;;6.46;68.14;100811.23;2223962;80;31134;-65
2021/04/15 12:16:13;;;;;;;14.58;8.93;;;;;;;6.51;67.97;100815.14;2223766;80;34328;-65
2021/04/15 12:19:59;;;;;;;12.47;9.13;;;;;;;6.57;67.98;100814.11;2210796;80;29662;-65
2021/04/15 12:23:30;;;;;;;6.20;4.17;;;;;;;6.59;67.88;100809.16;2179568;81;27809;-65
2021/04/15 12:27:07;;;;;;;6.77;4.57;;;;;;;6.57;67.39;100807.45;2221706;78;32129;-64
2021/04/15 12:30:23;;;;;;;9.80;6.28;;;;;;;6.59;67.37;100810.48;2213949;78;27628;-64
2021/04/15 12:33:33;;;;;;;7.17;3.72;;;;;;;6.58;67.47;100802.55;2187625;79;28836;-64
2021/04/15 12:36:44;;;;;;;10.03;6.45;;;;;;;6.57;67.31;100807.45;2219616;79;33500;-66
2021/04/15 12:39:55;;;;;;;15.95;8.03;;;;;;;6.53;67.47;100808.86;2198684;80;33138;-64
2021/04/15 12:43:05;;;;;;;10.82;7.78;;;;;;;6.51;67.58;100812.48;2191314;80;28542;-67
2021/04/15 12:46:23;;;;;;;16.23;10.58;;;;;;;6.46;67.76;100812.56;2207294;79;27737;-68
2021/04/15 12:49:35;;;;;;;15.13;8.68;;;;;;;6.44;67.73;100813.09;2114092;84;29753;-62
2021/04/15 12:52:36;;;;;;;6.85;4.03;;;;;;;6.50;67.93;100809.39;2212643;80;31155;-63
2021/04/15 12:55:39;;;;;;;12.20;6.33;;;;;;;6.55;68.20;100800.81;2193938;81;34264;-65
2021/04/15 12:58:43;;;;;;;7.75;4.25;;;;;;;6.55;68.20;100800.81;2179320;81;28855;-65
2021/04/15 13:01:46;;;;;;;5.65;3.60;;;;;;;6.52;67.86;100805.77;2159715;80;27784;-67
2021/04/15 13:04:54;;;;;;;7.78;4.70;;;;;;;6.50;67.83;100798.75;2187136;80;28818;-67
2021/04/15 13:07:59;;;;;;;10.35;6.37;;;;;;;6.56;68.09;100804.38;2178800;81;32162;-64
2021/04/15 13:11:18;;;;;;;7.65;3.50;;;;;;;6.60;68.19;100804.25;2150058;81;33214;-65
2021/04/15 13:14:40;;;;;;;6.22;4.05;;;;;;;6.57;68.06;100801.66;2171368;81;30116;-64
2021/04/15 13:17:46;;;;;;;5.78;3.50;;;;;;;6.52;67.81;100807.58;2179541;81;27639;-65
2021/04/15 13:20:48;;;;;;;7.35;3.62;;;;;;;6.46;67.69;100809.91;2179425;81;28803;-64
2021/04/15 13:23:51;;;;;;;3.05;2.08;;;;;;;6.38;67.91;100804.77;2148735;81;33482;-65
2021/04/15 13:26:54;;;;;;;5.28;3.45;;;;;;;6.30;67.71;100805.42;2169673;81;33134;-64
2021/04/15 13:30:41;;;;;;;1.80;1.60;;;;;;;6.24;68.16;100797.58;2138120;82;29794;-64
2021/04/15 13:34:05;;;;;;;4.35;3.02;;;;;;;6.25;67.91;100802.45;2169593;82;27763;-65
2021/04/15 13:37:42;;;;;;;7.35;3.30;;;;;;;6.19;68.24;100803.01;2168328;82;29698;-65
2021/04/15 13:40:51;;;;;;;5.03;3.25;;;;;;;6.14;68.04;100807.55;2168751;82;32055;-65
2021/04/15 13:44:02;;;;;;;10.85;5.85;;;;;;;6.07;68.24;100802.83;2168813;82;33109;-65
2021/04/15 13:47:46;;;;;;;12.63;6.42;;;;;;;6.11;68.62;100804.09;2179175;80;29723;-65
2021/04/15 13:51:09;;;;;;;5.20;3.67;;;;;;;6.13;68.56;100796.95;2217396;80;27971;-64
2021/04/15 13:54:35;;;;;;;4.97;3.45;;;;;;;6.13;68.28;100808.93;2091595;85;29692;-65
2021/04/15 13:57:45;;;;;;;8.90;5.55;;;;;;;6.11;68.55;100808.98;2091880;85;31138;-65
2021/04/15 14:00:48;;;;;;;8.53;5.45;;;;;;;6.16;68.69;100808.87;2091918;85;34057;-65
2021/04/15 14:03:50;;;;;;;4.60;3.30;;;;;;;6.09;68.38;100801.48;2091897;85;29072;-65
2021/04/15 14:06:53;;;;;;;9.95;5.90;;;;;;;6.09;68.43;100804.14;2091961;85;28242;-65
2021/04/15 14:10:06;;;;;;;9.20;5.35;;;;;;;6.12;68.76;100804.08;2091875;85;28811;-65
2021/04/15 14:13:18;;;;;;;9.70;4.35;;;;;;;6.14;68.29;100800.91;2088597;85;31152;-65
2021/04/15 14:16:21;;;;;;;6.85;4.20;;;;;;;6.08;68.47;100807.24;2090883;85;32117;-65
2021/04/15 14:19:40;;;;;;;9.78;5.35;;;;;;;6.10;68.59;100811.66;2091725;85;28940;-65
2021/04/15 14:22:42;;;;;;;3.83;2.90;;;;;;;6.07;68.43;100804.16;2091195;85;27852;-65
2021/04/15 14:25:45;;;;;;;5.12;3.72;;;;;;;6.01;68.34;100805.65;2090942;83;28849;-65
2021/04/15 14:28:49;;;;;;;5.62;3.75;;;;;;;5.92;68.20;100812.02;2123761;80;31149;-64
2021/04/15 14:31:59;;;;;;;10.35;4.60;;;;;;;5.90;68.38;100812.94;2193372;80;33321;-64
2021/04/15 14:35:22;;;;;;;9.40;4.85;;;;;;;5.93;68.93;100811.11;2198250;80;28911;-64
2021/04/15 14:38:35;;;;;;;5.00;3.10;;;;;;;6.00;68.87;100813.20;2059956;85;27670;-61
2021/04/15 14:41:39;;;;;;;5.85;3.45;;;;;;;5.94;68.40;100809.31;2087240;85;29806;-62
2021/04/15 14:44:43;;;;;;;8.60;5.20;;;;;;;5.92;68.52;100811.13;2091493;85;31230;-69
2021/04/15 14:47:51;;;;;;;13.38;8.80;;;;;;;5.93;68.72;100810.22;2092092;85;33008;-66
2021/04/15 14:51:14;;;;;;;9.18;5.08;;;;;;;5.96;68.78;100811.48;2092194;85;29317;-61
2021/04/15 14:54:27;;;;;;;17.95;8.68;;;;;;;5.91;68.64;100808.94;2071010;85;27962;-64
2021/04/15 14:57:32;;;;;;;11.70;7.10;;;;;;;5.91;68.85;100803.61;2192975;80;29797;-61
2021/04/15 15:00:46;;;;;;;7.28;4.62;;;;;;;5.91;68.68;100808.04;2209503;80;31149;-62
2021/04/15 15:03:49;;;;;;;11.55;5.05;;;;;;;5.89;68.48;100805.43;2216035;79;33093;-64
2021/04/15 15:06:54;;;;;;;8.73;5.70;;;;;;;5.86;68.63;100804.16;2210650;80;28836;-63
2021/04/15 15:09:56;;;;;;;12.23;6.70;;;;;;;5.83;68.67;100804.69;2193239;80;28110;-62
2021/04/15 15:13:00;;;;;;;10.85;6.22;;;;;;;5.85;68.92;100804.20;2181166;80;28842;-61
2021/04/15 15:16:05;;;;;;;16.62;9.63;;;;;;;5.85;68.83;100801.08;2202606;80;31344;-61
2021/04/15 15:19:22;;;;;;;19.40;10.93;;;;;;;5.84;68.66;100802.45;2208790;80;33116;-62
2021/04/15 15:22:29;;;;;;;12.47;6.58;;;;;;;5.84;68.71;100797.14;2179291;80;28864;-62
2021/04/15 15:25:40;;;;;;;9.40;5.72;;;;;;;5.77;68.45;100804.38;2177851;80;27734;-61